Time;durP1;ratioP1;P1;durP2;ratioP2;P2;SDS_P1;SDS_P2;PMS_P1;PMS_P2;Temp;Humidity;BMP_temperature;BMP_pressure;BME280_temperature;BME280_humidity;BME280_pressure;Samples;Min_cycle;Max_cycle;Signal;HPM_P1;HPM_P2
2021/08/24 00:00:06;;;;;;;8.53;7.73;;;14.70;99.90;;;;;;5060555;28;20426;-80
2021/08/24 00:02:32;;;;;;;9.30;8.23;;;14.70;99.90;;;;;;5061335;28;20210;-80
2021/08/24 00:04:58;;;;;;;11.43;7.77;;;14.90;99.90;;;;;;5060602;28;20425;-81
2021/08/24 00:07:24;;;;;;;8.20;7.40;;;14.80;99.90;;;;;;5051407;28;20553;-77
2021/08/24 00:09:49;;;;;;;9.40;8.50;;;14.50;99.90;;;;;;5051639;28;20778;-82
2021/08/24 00:12:15;;;;;;;8.20;7.50;;;14.90;99.90;;;;;;5052038;28;20186;-80
2021/08/24 00:14:41;;;;;;;8.20;7.20;;;14.60;99.90;;;;;;5052402;28;20229;-81
2021/08/24 00:17:07;;;;;;;8.13;7.33;;;14.60;99.90;;;;;;5046364;28;20490;-80
2021/08/24 00:19:32;;;;;;;8.73;7.83;;;14.90;99.90;;;;;;5053258;28;20252;-82
2021/08/24 00:21:58;;;;;;;8.20;7.40;;;14.80;99.90;;;;;;5052881;28;20427;-81
2021/08/24 00:24:23;;;;;;;8.70;7.80;;;14.60;99.90;;;;;;5051761;28;20596;-82
2021/08/24 00:26:49;;;;;;;10.40;8.10;;;14.70;99.90;;;;;;5045142;28;20180;-82
2021/08/24 00:29:14;;;;;;;8.87;6.77;;;14.70;99.90;;;;;;5052562;28;20672;-82
2021/08/24 00:31:40;;;;;;;8.63;7.70;;;14.70;99.90;;;;;;5059365;28;20197;-83
2021/08/24 00:34:06;;;;;;;9.10;7.90;;;14.60;99.90;;;;;;5059961;28;20269;-81
2021/08/24 00:36:32;;;;;;;7.57;6.87;;;14.70;99.90;;;;;;5051270;28;20179;-83
2021/08/24 00:38:58;;;;;;;9.40;8.50;;;14.60;99.90;;;;;;5052478;28;20707;-81
2021/08/24 00:41:25;;;;;;;8.23;7.43;;;14.90;99.90;;;;;;5056103;28;20429;-83
2021/08/24 00:43:51;;;;;;;10.33;8.10;;;14.70;99.90;;;;;;5053498;28;20210;-81
2021/08/24 00:46:33;;;;;;;8.77;7.87;;;14.60;99.90;;;;;;5043521;28;20930;-84
2021/08/24 00:49:04;;;;;;;8.50;7.70;;;14.80;99.90;;;;;;5051353;28;20464;-83
2021/08/24 00:51:32;;;;;;;8.80;7.40;;;14.80;99.90;;;;;;5042012;28;20429;-84
2021/08/24 00:53:58;;;;;;;8.53;7.50;;;14.80;99.90;;;;;;5050506;28;20440;-84
2021/08/24 00:56:24;;;;;;;8.00;7.20;;;14.80;99.90;;;;;;5051014;28;20429;-84
2021/08/24 00:58:50;;;;;;;8.27;7.57;;;14.60;99.90;;;;;;5051173;28;20579;-84
2021/08/24 01:01:16;;;;;;;10.00;7.80;;;14.60;99.90;;;;;;5050481;28;20436;-84
2021/08/24 01:03:47;;;;;;;8.50;7.80;;;14.80;99.90;;;;;;5051599;28;20190;-85
2021/08/24 01:06:23;;;;;;;8.40;7.60;;;14.80;99.90;;;;;;5056838;28;20186;-82
2021/08/24 01:09:13;;;;;;;8.53;7.83;;;14.50;99.90;;;;;;5046845;28;20458;-83
2021/08/24 01:11:56;;;;;;;8.90;8.00;;;14.90;99.90;;;;;;5045917;28;20429;-83
2021/08/24 01:14:44;;;;;;;8.50;7.70;;;14.80;99.90;;;;;;5051003;28;20428;-84
2021/08/24 01:17:10;;;;;;;9.30;7.67;;;14.70;99.90;;;;;;5050783;28;20464;-83
2021/08/24 01:19:57;;;;;;;7.97;7.30;;;14.70;99.90;;;;;;5045191;28;20849;-84
2021/08/24 01:22:50;;;;;;;9.27;8.37;;;14.70;99.90;;;;;;5051757;28;20210;-84
2021/08/24 01:25:24;;;;;;;8.93;8.10;;;14.70;99.90;;;;;;5049773;28;20460;-84
2021/08/24 01:27:54;;;;;;;9.70;8.80;;;14.70;99.90;;;;;;5058663;28;20807;-84
2021/08/24 01:30:51;;;;;;;9.10;8.20;;;14.70;99.90;;;;;;5059571;28;20436;-84
2021/08/24 01:33:38;;;;;;;10.00;8.97;;;14.60;99.90;;;;;;5053831;28;20546;-83
2021/08/24 01:36:33;;;;;;;8.70;7.77;;;14.30;99.90;;;;;;5049504;28;20448;-84
2021/08/24 01:39:06;;;;;;;9.67;8.77;;;14.50;99.90;;;;;;5048038;28;20465;-84
2021/08/24 01:41:38;;;;;;;11.83;9.47;;;14.70;99.90;;;;;;5059808;28;20552;-84
2021/08/24 01:44:12;;;;;;;11.97;9.43;;;14.40;99.90;;;;;;5060088;28;20543;-84
2021/08/24 01:46:41;;;;;;;11.50;10.23;;;14.50;99.90;;;;;;5057544;28;20464;-84
2021/08/24 01:49:07;;;;;;;11.83;10.57;;;14.40;99.90;;;;;;5063604;28;20997;-83
2021/08/24 01:51:43;;;;;;;11.50;10.30;;;14.40;99.90;;;;;;5048936;28;20498;-83
2021/08/24 01:54:24;;;;;;;10.70;9.47;;;14.20;99.90;;;;;;5050383;28;20194;-84
2021/08/24 01:56:52;;;;;;;11.13;9.87;;;14.60;99.90;;;;;;5037789;28;20520;-84
2021/08/24 01:59:36;;;;;;;10.50;9.47;;;14.20;99.90;;;;;;5057279;28;20467;-84
2021/08/24 02:02:11;;;;;;;11.20;9.50;;;14.30;99.90;;;;;;5042730;28;20440;-84
2021/08/24 02:05:03;;;;;;;11.70;9.03;;;14.30;99.90;;;;;;5048012;28;20432;-84
2021/08/24 02:07:32;;;;;;;9.50;8.60;;;14.10;99.90;;;;;;5041093;28;20433;-85
2021/08/24 02:10:17;;;;;;;9.03;7.97;;;14.00;99.90;;;;;;5049264;28;20441;-83
2021/08/24 02:12:45;;;;;;;10.47;9.33;;;14.00;99.90;;;;;;5048917;28;20528;-83
2021/08/24 02:15:11;;;;;;;9.17;8.27;;;14.20;99.90;;;;;;5038932;28;20873;-83
2021/08/24 02:17:40;;;;;;;9.70;8.17;;;13.90;99.90;;;;;;5049755;28;20930;-83
2021/08/24 02:20:17;;;;;;;9.13;8.13;;;14.00;99.90;;;;;;5057081;28;20519;-84
2021/08/24 02:22:48;;;;;;;9.40;8.40;;;14.00;99.90;;;;;;5048771;28;20444;-84
2021/08/24 02:25:18;;;;;;;8.60;7.80;;;13.70;99.90;;;;;;5049842;28;20791;-84
2021/08/24 02:27:52;;;;;;;12.77;8.53;;;14.00;99.90;;;;;;5049914;28;21005;-84
2021/08/24 02:30:18;;;;;;;9.20;8.30;;;13.70;99.90;;;;;;5048988;28;20809;-84
2021/08/24 02:32:47;;;;;;;9.07;7.70;;;13.70;99.90;;;;;;5043087;28;20449;-84
2021/08/24 02:35:26;;;;;;;12.20;8.73;;;13.70;99.90;;;;;;5043078;28;20187;-84
2021/08/24 02:37:58;;;;;;;9.40;8.50;;;13.70;99.90;;;;;;5049549;28;20563;-84
2021/08/24 02:40:47;;;;;;;11.43;9.57;;;13.90;99.90;;;;;;5051699;28;20794;-85
2021/08/24 02:43:36;;;;;;;13.27;9.60;;;13.80;99.90;;;;;;5043436;28;20446;-83
2021/08/24 02:46:22;;;;;;;10.90;8.80;;;13.90;99.90;;;;;;5048675;28;20467;-83
2021/08/24 02:48:52;;;;;;;8.43;7.50;;;14.00;99.90;;;;;;5042355;28;20465;-83
2021/08/24 02:51:20;;;;;;;9.07;8.20;;;13.80;99.90;;;;;;5049079;28;20460;-84
2021/08/24 02:54:02;;;;;;;8.97;8.07;;;13.60;99.90;;;;;;5042877;28;20527;-84
2021/08/24 02:56:28;;;;;;;9.40;8.17;;;13.60;99.90;;;;;;5054545;28;20839;-83
2021/08/24 02:58:53;;;;;;;8.43;7.60;;;13.60;99.90;;;;;;5053365;28;20461;-84
2021/08/24 03:01:19;;;;;;;9.07;7.53;;;13.50;99.90;;;;;;5053146;28;20193;-83
2021/08/24 03:03:44;;;;;;;8.47;7.63;;;13.50;99.90;;;;;;5052799;28;20181;-83
2021/08/24 03:06:10;;;;;;;8.50;7.70;;;13.50;99.90;;;;;;5050708;28;20225;-83
2021/08/24 03:08:35;;;;;;;7.43;6.73;;;13.50;99.90;;;;;;5050601;28;20205;-83
2021/08/24 03:11:02;;;;;;;9.30;6.97;;;13.40;99.90;;;;;;5044802;28;20194;-83
2021/08/24 03:13:42;;;;;;;7.97;7.23;;;13.30;99.90;;;;;;5056783;28;20196;-83
2021/08/24 03:16:23;;;;;;;8.13;7.33;;;13.00;99.90;;;;;;5046221;28;20460;-83
2021/08/24 03:18:55;;;;;;;7.33;6.63;;;13.20;99.90;;;;;;5053165;28;20878;-83
2021/08/24 03:21:24;;;;;;;7.60;6.80;;;12.90;99.90;;;;;;5058721;28;20451;-84
2021/08/24 03:23:52;;;;;;;9.70;6.90;;;12.60;99.90;;;;;;5052849;28;20489;-84
2021/08/24 03:26:29;;;;;;;6.63;6.03;;;12.80;99.90;;;;;;5044747;28;20441;-84
2021/08/24 03:28:55;;;;;;;7.83;6.77;;;12.70;99.90;;;;;;5049502;28;20798;-83
2021/08/24 03:31:22;;;;;;;8.48;7.40;;;12.70;99.90;;;;;;5052219;28;20439;-84
2021/08/24 03:33:48;;;;;;;8.30;7.50;;;12.50;99.90;;;;;;5052672;28;20191;-84
2021/08/24 03:36:14;;;;;;;8.10;7.33;;;12.30;99.90;;;;;;5052603;28;20433;-83
2021/08/24 03:38:41;;;;;;;10.30;7.83;;;12.60;99.90;;;;;;5052670;28;21004;-84
2021/08/24 03:41:09;;;;;;;8.60;7.22;;;12.30;99.90;;;;;;5051640;28;20433;-84
2021/08/24 03:43:35;;;;;;;8.70;7.15;;;12.40;99.90;;;;;;5043606;28;20209;-84
2021/08/24 03:46:01;;;;;;;8.33;7.53;;;12.10;99.90;;;;;;5052318;28;20187;-83
2021/08/24 03:48:27;;;;;;;8.13;7.37;;;12.30;99.90;;;;;;5052025;28;20525;-83
2021/08/24 03:50:52;;;;;;;7.73;6.93;;;12.00;99.90;;;;;;5052056;28;20461;-84
2021/08/24 03:53:18;;;;;;;8.70;7.83;;;11.90;99.90;;;;;;5052037;28;20264;-83
2021/08/24 03:55:43;;;;;;;9.93;8.40;;;12.30;99.90;;;;;;5051903;28;20186;-84
2021/08/24 03:58:09;;;;;;;7.90;7.20;;;12.10;99.90;;;;;;5053591;28;20210;-84
2021/08/24 04:00:35;;;;;;;9.20;8.30;;;12.20;99.90;;;;;;5059509;28;20213;-84
2021/08/24 04:03:01;;;;;;;8.73;7.40;;;11.70;99.90;;;;;;5052019;28;20188;-84
2021/08/24 04:05:26;;;;;;;7.90;7.10;;;11.80;99.90;;;;;;5052149;28;20438;-84
2021/08/24 04:07:53;;;;;;;8.87;8.00;;;11.90;99.90;;;;;;5050288;28;20567;-83
2021/08/24 04:10:19;;;;;;;8.63;7.72;;;12.00;99.90;;;;;;5049234;28;20232;-83
2021/08/24 04:12:45;;;;;;;8.27;7.28;;;11.50;99.90;;;;;;5061077;28;20189;-82
2021/08/24 04:15:10;;;;;;;8.30;7.50;;;11.60;99.90;;;;;;5051875;28;20211;-83
2021/08/24 04:17:38;;;;;;;8.90;7.50;;;11.60;99.90;;;;;;5050878;28;21164;-83
2021/08/24 04:20:06;;;;;;;8.68;7.53;;;11.60;99.90;;;;;;5051688;28;20526;-83
2021/08/24 04:22:33;;;;;;;12.55;7.80;;;11.80;99.90;;;;;;5051665;28;20567;-83
2021/08/24 04:24:58;;;;;;;9.02;8.18;;;11.60;99.90;;;;;;5051753;28;20186;-83
2021/08/24 04:27:24;;;;;;;9.20;8.27;;;11.30;99.90;;;;;;5050436;28;20182;-83
2021/08/24 04:29:49;;;;;;;9.10;8.17;;;11.30;99.90;;;;;;5049813;28;20183;-83
2021/08/24 04:32:22;;;;;;;10.47;8.97;;;11.60;99.90;;;;;;5051465;28;20271;-82
2021/08/24 04:34:48;;;;;;;10.00;8.77;;;11.30;99.90;;;;;;5051574;28;20262;-83
2021/08/24 04:37:13;;;;;;;9.33;8.43;;;11.40;99.90;;;;;;5051503;28;20278;-83
2021/08/24 04:39:39;;;;;;;8.67;7.77;;;11.40;99.90;;;;;;5049301;28;20646;-83
2021/08/24 04:42:05;;;;;;;9.43;7.10;;;11.50;99.90;;;;;;5051497;28;20702;-85
2021/08/24 04:44:30;;;;;;;8.85;7.95;;;11.30;99.90;;;;;;5050333;28;20208;-83
2021/08/24 04:46:56;;;;;;;9.20;8.30;;;11.40;99.90;;;;;;5051238;28;20731;-82
2021/08/24 04:49:22;;;;;;;11.20;8.33;;;11.40;99.90;;;;;;5059247;28;20275;-84
2021/08/24 04:51:48;;;;;;;10.32;8.45;;;11.20;99.90;;;;;;5051656;28;20200;-83
2021/08/24 04:54:13;;;;;;;9.43;8.43;;;11.20;99.90;;;;;;5051520;28;20214;-84
2021/08/24 04:56:39;;;;;;;11.93;7.80;;;11.40;99.90;;;;;;5050551;28;20265;-85
2021/08/24 04:59:04;;;;;;;9.33;8.33;;;11.50;99.90;;;;;;5051310;28;20211;-82
2021/08/24 05:01:30;;;;;;;10.33;9.27;;;11.50;99.90;;;;;;5051267;28;20599;-83
2021/08/24 05:03:55;;;;;;;10.57;9.37;;;11.50;99.90;;;;;;5044638;28;20729;-82
2021/08/24 05:06:21;;;;;;;11.87;8.63;;;11.40;99.90;;;;;;5053182;28;20184;-91
2021/08/24 05:08:46;;;;;;;9.57;8.13;;;11.50;99.90;;;;;;5057075;28;20193;-92
2021/08/24 05:11:12;;;;;;;9.83;8.57;;;11.40;99.90;;;;;;5061702;28;20192;-94
2021/08/24 05:13:37;;;;;;;8.83;7.97;;;11.40;99.90;;;;;;5042424;28;20192;-90
2021/08/24 05:16:08;;;;;;;8.53;7.30;;;11.60;99.90;;;;;;5060156;28;20207;-86
2021/08/24 05:18:34;;;;;;;9.55;8.55;;;11.50;99.90;;;;;;5051528;28;20677;-89
2021/08/24 05:21:06;;;;;;;12.18;9.93;;;11.50;99.90;;;;;;5048964;28;20198;-90
2021/08/24 05:23:32;;;;;;;10.45;8.05;;;11.50;99.90;;;;;;5059907;28;20212;-88
2021/08/24 05:25:59;;;;;;;9.80;8.80;;;11.80;99.90;;;;;;5060873;28;20198;-90
2021/08/24 05:28:25;;;;;;;8.20;7.43;;;11.80;99.90;;;;;;5053034;28;20194;-90
2021/08/24 05:30:50;;;;;;;10.70;9.23;;;12.00;99.90;;;;;;5054354;28;20245;-90
2021/08/24 05:33:16;;;;;;;11.80;8.37;;;12.10;99.90;;;;;;5064528;28;20429;-90
2021/08/24 05:35:41;;;;;;;9.80;8.10;;;12.20;99.90;;;;;;5057954;28;20629;-90
2021/08/24 05:38:07;;;;;;;9.73;8.77;;;12.20;99.90;;;;;;5059828;28;20233;-92
2021/08/24 05:40:32;;;;;;;12.63;8.97;;;12.40;99.90;;;;;;5051378;28;20250;-88
2021/08/24 05:42:58;;;;;;;9.13;8.23;;;12.30;99.90;;;;;;5048290;28;20189;-88
2021/08/24 05:45:24;;;;;;;11.37;9.70;;;12.70;99.90;;;;;;5051568;28;20306;-91
2021/08/24 05:47:49;;;;;;;14.03;9.93;;;12.70;99.90;;;;;;5051991;28;20300;-89
2021/08/24 05:50:15;;;;;;;15.87;10.53;;;12.70;99.90;;;;;;5060950;28;20193;-89
2021/08/24 05:52:41;;;;;;;10.73;9.60;;;12.90;99.90;;;;;;5063951;28;20198;-91
2021/08/24 05:55:07;;;;;;;10.73;9.70;;;12.80;99.90;;;;;;5054050;28;20193;-90
2021/08/24 05:57:33;;;;;;;12.40;9.80;;;13.00;99.90;;;;;;5059338;28;20433;-90
2021/08/24 05:59:58;;;;;;;15.03;11.80;;;13.40;99.90;;;;;;5055629;28;20455;-88
2021/08/24 06:02:24;;;;;;;16.00;13.40;;;13.50;99.90;;;;;;5049039;28;20261;-89
2021/08/24 06:04:49;;;;;;;11.60;10.30;;;13.40;99.90;;;;;;5046768;28;20227;-90
2021/08/24 06:07:15;;;;;;;15.50;11.93;;;13.50;99.90;;;;;;5042520;28;20229;-88
2021/08/24 06:09:41;;;;;;;14.80;11.70;;;13.70;99.90;;;;;;5048610;28;20182;-86
2021/08/24 06:12:06;;;;;;;16.50;12.10;;;13.70;99.90;;;;;;5050031;28;20191;-86
2021/08/24 06:14:32;;;;;;;11.40;10.00;;;13.80;99.90;;;;;;5050143;28;20277;-88
2021/08/24 06:16:58;;;;;;;11.60;10.13;;;14.30;99.90;;;;;;5050861;28;20189;-87
2021/08/24 06:19:30;;;;;;;9.47;8.57;;;14.40;99.90;;;;;;5080347;28;20194;-87
2021/08/24 06:21:58;;;;;;;9.53;8.63;;;14.50;99.90;;;;;;5078592;28;20177;-87
2021/08/24 06:24:24;;;;;;;12.27;11.00;;;14.70;99.90;;;;;;5078879;28;20492;-85
2021/08/24 06:26:52;;;;;;;12.70;10.63;;;14.80;99.90;;;;;;5065793;28;20420;-85
2021/08/24 06:29:18;;;;;;;11.80;9.10;;;15.00;99.90;;;;;;5053068;28;20432;-84
2021/08/24 06:31:48;;;;;;;10.93;9.00;;;15.00;99.90;;;;;;5043394;28;21883;-87
2021/08/24 06:34:14;;;;;;;9.93;9.03;;;14.90;99.90;;;;;;5054375;28;20185;-84
2021/08/24 06:36:40;;;;;;;10.10;9.10;;;15.00;99.90;;;;;;5042253;28;20931;-83
2021/08/24 06:39:07;;;;;;;11.93;10.50;;;14.80;99.90;;;;;;5041578;28;20692;-86
2021/08/24 06:41:34;;;;;;;12.60;9.90;;;14.70;99.90;;;;;;5047936;28;20520;-82
2021/08/24 06:43:59;;;;;;;10.57;9.47;;;14.50;99.90;;;;;;5049445;28;20535;-85
2021/08/24 06:46:25;;;;;;;10.07;9.17;;;14.40;99.90;;;;;;5047706;28;20525;-86
2021/08/24 06:48:50;;;;;;;10.30;9.33;;;14.60;99.90;;;;;;5048459;28;20572;-84
2021/08/24 06:51:16;;;;;;;9.10;8.10;;;14.70;99.90;;;;;;5050195;28;20194;-84
2021/08/24 06:53:42;;;;;;;9.80;8.80;;;14.50;99.90;;;;;;5042420;28;20191;-85
2021/08/24 06:56:12;;;;;;;9.40;8.50;;;14.50;99.90;;;;;;5048895;28;20432;-85
2021/08/24 06:58:39;;;;;;;11.63;9.40;;;14.60;99.90;;;;;;5047938;28;20231;-84
2021/08/24 07:01:04;;;;;;;9.97;8.97;;;14.80;99.90;;;;;;5049425;28;20887;-83
2021/08/24 07:03:30;;;;;;;10.30;9.23;;;14.80;99.90;;;;;;5049405;28;20444;-84
2021/08/24 07:05:55;;;;;;;11.20;9.97;;;14.90;99.90;;;;;;5049276;28;20277;-81
2021/08/24 07:08:21;;;;;;;11.47;10.37;;;15.20;99.90;;;;;;5048057;28;20680;-81
2021/08/24 07:10:48;;;;;;;11.27;10.13;;;15.50;99.90;;;;;;5049572;28;20182;-82
2021/08/24 07:13:15;;;;;;;9.30;8.50;;;15.50;99.90;;;;;;5053678;28;20277;-80
2021/08/24 07:15:40;;;;;;;10.80;9.73;;;15.90;99.90;;;;;;5055214;28;20444;-81
2021/08/24 07:18:06;;;;;;;17.93;9.40;;;16.00;99.90;;;;;;5048568;28;20479;-79
2021/08/24 07:20:32;;;;;;;10.20;9.20;;;15.90;99.90;;;;;;5048570;28;20368;-80
2021/08/24 07:22:58;;;;;;;8.63;7.80;;;15.90;99.90;;;;;;5049010;28;20691;-80
2021/08/24 07:25:28;;;;;;;7.90;7.20;;;15.80;99.90;;;;;;5048900;28;20241;-82
2021/08/24 07:27:54;;;;;;;8.73;7.93;;;16.10;99.90;;;;;;5053816;28;20430;-82
2021/08/24 07:30:20;;;;;;;8.37;6.53;;;16.20;99.90;;;;;;5048306;28;20532;-77
2021/08/24 07:32:46;;;;;;;7.07;6.37;;;16.20;99.90;;;;;;5052490;28;20854;-79
2021/08/24 07:35:13;;;;;;;7.30;6.27;;;16.30;99.90;;;;;;5056652;28;20190;-79
2021/08/24 07:37:39;;;;;;;6.60;6.00;;;16.20;99.90;;;;;;5048746;28;20472;-80
2021/08/24 07:40:08;;;;;;;7.33;5.97;;;16.40;99.90;;;;;;5056908;28;20429;-79
2021/08/24 07:42:33;;;;;;;5.60;5.13;;;16.30;99.90;;;;;;5048830;28;20444;-80
2021/08/24 07:44:59;;;;;;;6.47;5.87;;;16.40;99.90;;;;;;5052214;28;21097;-79
2021/08/24 07:47:24;;;;;;;6.20;5.50;;;16.60;99.90;;;;;;5051667;28;20223;-78
2021/08/24 07:49:51;;;;;;;5.93;5.43;;;16.60;99.90;;;;;;5052447;28;20252;-79
2021/08/24 07:52:18;;;;;;;6.40;5.80;;;16.50;99.90;;;;;;5051772;28;20541;-80
2021/08/24 07:54:43;;;;;;;5.80;5.30;;;16.70;99.90;;;;;;5052477;28;20436;-80
2021/08/24 07:57:09;;;;;;;6.60;5.73;;;16.40;99.90;;;;;;5051535;28;20421;-81
2021/08/24 07:59:34;;;;;;;6.20;5.60;;;16.80;99.90;;;;;;5052186;28;20264;-81
2021/08/24 08:02:00;;;;;;;5.60;5.07;;;16.90;99.90;;;;;;5059319;28;20190;-80
2021/08/24 08:04:27;;;;;;;5.50;5.00;;;17.20;99.90;;;;;;5054769;28;20187;-79
2021/08/24 08:06:52;;;;;;;5.60;5.10;;;17.40;99.90;;;;;;5051573;28;20190;-79
2021/08/24 08:09:21;;;;;;;5.67;4.90;;;17.70;99.90;;;;;;5051824;28;20460;-81
2021/08/24 08:11:48;;;;;;;5.50;4.60;;;17.90;99.90;;;;;;5051344;28;20270;-81
2021/08/24 08:14:14;;;;;;;5.30;4.70;;;18.10;99.90;;;;;;5044115;28;20429;-79
2021/08/24 08:16:41;;;;;;;5.70;5.20;;;17.80;99.90;;;;;;5051548;28;20441;-79
2021/08/24 08:19:07;;;;;;;5.67;5.17;;;17.70;99.90;;;;;;5051141;28;20495;-78
2021/08/24 08:21:34;;;;;;;6.83;6.23;;;17.90;99.90;;;;;;5051558;28;20521;-80
2021/08/24 08:24:01;;;;;;;8.53;5.87;;;17.70;99.90;;;;;;5051403;28;20194;-80
2021/08/24 08:26:28;;;;;;;5.87;5.27;;;17.40;99.90;;;;;;5052320;28;20444;-80
2021/08/24 08:28:55;;;;;;;5.77;5.37;;;18.00;99.90;;;;;;5051050;28;20441;-81
2021/08/24 08:31:22;;;;;;;5.30;4.90;;;17.80;99.90;;;;;;5051510;28;20791;-81
2021/08/24 08:33:47;;;;;;;6.00;4.97;;;17.70;99.90;;;;;;5050888;28;20436;-81
2021/08/24 08:36:13;;;;;;;5.80;5.17;;;17.40;99.90;;;;;;5051557;28;20429;-82
2021/08/24 08:38:38;;;;;;;5.90;4.40;;;17.30;99.90;;;;;;5050571;28;20237;-80
2021/08/24 08:41:50;;;;;;;6.57;5.17;;;17.70;99.90;;;;;;5044371;28;20191;-80
2021/08/24 08:44:39;;;;;;;5.27;4.77;;;18.00;99.90;;;;;;5049200;28;20229;-80
2021/08/24 08:47:24;;;;;;;5.53;4.27;;;18.10;99.90;;;;;;5050143;28;20435;-82
2021/08/24 08:50:13;;;;;;;5.63;5.13;;;18.30;99.90;;;;;;5051229;28;20441;-77
2021/08/24 08:52:54;;;;;;;5.10;4.40;;;18.40;99.90;;;;;;5044221;28;20476;-81
2021/08/24 08:55:39;;;;;;;5.00;4.60;;;18.50;99.90;;;;;;5050763;28;20429;-80
2021/08/24 08:58:14;;;;;;;4.27;3.90;;;19.00;99.90;;;;;;5065928;28;20473;-79
2021/08/24 09:00:49;;;;;;;5.63;5.13;;;18.80;99.90;;;;;;5048025;28;20460;-81
2021/08/24 09:03:35;;;;;;;5.50;5.00;;;18.80;99.90;;;;;;5053387;28;20830;-80
2021/08/24 09:06:02;;;;;;;5.03;4.63;;;18.80;99.90;;;;;;5051135;28;20429;-81
2021/08/24 09:08:28;;;;;;;5.10;4.67;;;18.90;99.90;;;;;;5050869;28;20433;-80
2021/08/24 09:10:56;;;;;;;4.93;4.53;;;18.70;99.90;;;;;;5043609;28;20621;-82
2021/08/24 09:13:47;;;;;;;5.97;5.47;;;18.60;99.90;;;;;;5042109;28;20525;-81
2021/08/24 09:16:29;;;;;;;5.93;5.43;;;18.60;99.90;;;;;;5048418;28;20526;-85
2021/08/24 09:18:59;;;;;;;5.90;5.40;;;18.60;99.90;;;;;;5042186;28;20523;-81
2021/08/24 09:21:29;;;;;;;6.50;6.00;;;18.80;99.90;;;;;;5032553;28;20449;-81
2021/08/24 09:23:57;;;;;;;6.87;6.27;;;18.10;99.90;;;;;;5049522;28;20425;-81
2021/08/24 09:26:48;;;;;;;6.33;5.73;;;18.30;99.90;;;;;;5045322;28;20485;-82
2021/08/24 09:29:17;;;;;;;6.30;5.60;;;18.30;99.90;;;;;;5019394;28;20537;-77
2021/08/24 09:31:45;;;;;;;6.43;5.80;;;18.10;99.90;;;;;;5050000;28;20462;-79
2021/08/24 09:34:16;;;;;;;6.77;6.17;;;18.40;99.90;;;;;;5050104;28;20426;-80
2021/08/24 09:36:42;;;;;;;6.57;5.97;;;18.50;99.90;;;;;;5050002;28;20451;-81
2021/08/24 09:39:08;;;;;;;6.47;5.57;;;18.30;99.90;;;;;;5050450;28;20469;-79
2021/08/24 09:41:39;;;;;;;6.10;5.60;;;18.40;99.90;;;;;;5050191;28;20184;-81
2021/08/24 09:44:24;;;;;;;6.10;5.50;;;18.20;99.90;;;;;;5052981;28;20451;-81
2021/08/24 09:46:52;;;;;;;6.10;5.53;;;18.50;99.90;;;;;;5049458;28;20433;-81
2021/08/24 09:49:20;;;;;;;5.73;5.23;;;18.00;99.90;;;;;;5049423;28;20561;-83
2021/08/24 09:51:55;;;;;;;6.30;5.70;;;18.20;99.90;;;;;;5049308;28;20438;-81
2021/08/24 09:54:38;;;;;;;6.20;5.60;;;18.20;99.90;;;;;;5055716;28;20432;-81
2021/08/24 09:57:09;;;;;;;6.90;6.20;;;18.20;99.90;;;;;;5040873;28;20998;-80
2021/08/24 09:59:40;;;;;;;6.67;6.17;;;18.00;99.90;;;;;;5049288;28;20465;-81
2021/08/24 10:02:26;;;;;;;6.20;5.70;;;17.90;99.90;;;;;;5059242;28;20521;-82
2021/08/24 10:04:53;;;;;;;6.47;5.93;;;18.30;99.90;;;;;;5049135;28;20426;-82
2021/08/24 10:07:32;;;;;;;6.10;5.50;;;18.70;99.90;;;;;;5048597;28;20988;-81
2021/08/24 10:09:58;;;;;;;5.73;5.33;;;19.40;99.90;;;;;;5053873;28;20435;-82
2021/08/24 10:12:29;;;;;;;5.27;4.77;;;20.00;99.90;;;;;;5049257;28;20531;-81
2021/08/24 10:14:56;;;;;;;6.10;5.07;;;20.70;99.90;;;;;;5050555;28;20440;-81
2021/08/24 10:17:37;;;;;;;4.80;4.40;;;21.00;99.90;;;;;;5049797;28;20573;-80
2021/08/24 10:20:26;;;;;;;5.83;5.23;;;21.00;99.20;;;;;;5032103;28;20453;-81
2021/08/24 10:22:52;;;;;;;5.73;5.23;;;20.40;96.40;;;;;;5048764;28;20938;-82
2021/08/24 10:25:25;;;;;;;5.00;4.50;;;19.90;99.10;;;;;;5039528;28;20435;-83
2021/08/24 10:28:05;;;;;;;7.90;5.20;;;20.10;99.90;;;;;;5046494;28;20431;-81
2021/08/24 10:30:57;;;;;;;5.30;4.90;;;19.60;99.90;;;;;;5030929;28;20436;-79
2021/08/24 10:33:30;;;;;;;6.93;6.37;;;19.70;99.90;;;;;;5041653;28;20848;-81
2021/08/24 10:36:06;;;;;;;5.60;5.10;;;19.80;99.90;;;;;;5047973;28;20433;-81
2021/08/24 10:38:49;;;;;;;5.70;5.20;;;19.90;99.90;;;;;;5048349;28;20486;-78
2021/08/24 10:41:41;;;;;;;5.80;5.20;;;20.00;99.90;;;;;;5048403;28;20423;-81
2021/08/24 10:44:22;;;;;;;6.40;5.80;;;19.80;99.90;;;;;;5046439;28;20537;-81
2021/08/24 10:47:03;;;;;;;7.20;5.37;;;19.70;99.90;;;;;;5030777;28;20431;-82
2021/08/24 10:49:30;;;;;;;5.90;5.40;;;19.50;99.90;;;;;;5041376;28;20464;-78
2021/08/24 10:52:10;;;;;;;6.30;5.70;;;19.20;99.90;;;;;;5048124;28;20952;-81
2021/08/24 10:55:03;;;;;;;6.27;5.73;;;19.20;99.90;;;;;;5040083;28;20439;-81
2021/08/24 10:58:03;;;;;;;5.73;5.20;;;19.10;99.90;;;;;;5041006;28;20462;-81
2021/08/24 11:01:01;;;;;;;5.33;4.93;;;19.20;99.90;;;;;;5040487;28;20424;-81
2021/08/24 11:03:44;;;;;;;5.97;5.27;;;19.40;99.90;;;;;;5047977;28;20940;-80
2021/08/24 11:06:28;;;;;;;4.97;4.57;;;19.10;99.90;;;;;;5048134;28;20434;-81
2021/08/24 11:09:14;;;;;;;7.00;5.40;;;18.90;99.90;;;;;;5047993;28;20518;-80
2021/08/24 11:12:06;;;;;;;5.33;4.93;;;18.90;99.90;;;;;;5041013;28;20954;-81
2021/08/24 11:14:49;;;;;;;5.27;4.87;;;18.70;99.90;;;;;;5030436;28;20432;-77
2021/08/24 11:17:43;;;;;;;5.60;5.20;;;18.60;99.90;;;;;;5046748;28;20443;-78
2021/08/24 11:20:43;;;;;;;6.03;5.37;;;18.30;99.90;;;;;;5048404;28;20531;-80
2021/08/24 11:23:21;;;;;;;5.30;4.90;;;18.40;99.90;;;;;;5048202;28;20430;-81
2021/08/24 11:25:56;;;;;;;5.47;5.07;;;19.00;99.90;;;;;;5051686;28;20789;-81
2021/08/24 11:28:42;;;;;;;5.60;5.10;;;19.30;99.90;;;;;;5051824;28;20430;-81
2021/08/24 11:31:19;;;;;;;6.10;5.60;;;18.80;99.90;;;;;;5051891;28;20788;-82
2021/08/24 11:34:18;;;;;;;6.07;5.57;;;19.30;99.90;;;;;;5051894;28;20515;-81
2021/08/24 11:36:50;;;;;;;5.93;5.43;;;19.10;99.90;;;;;;5043711;28;20427;-82
2021/08/24 11:39:49;;;;;;;5.90;5.50;;;19.30;99.90;;;;;;5052119;28;20899;-78
2021/08/24 11:42:24;;;;;;;5.27;4.90;;;19.40;99.90;;;;;;5047157;28;20437;-78
2021/08/24 11:44:55;;;;;;;5.00;4.60;;;19.50;99.90;;;;;;5041504;28;20457;-79
2021/08/24 11:47:41;;;;;;;5.50;5.07;;;19.80;99.90;;;;;;5051817;28;20441;-79
2021/08/24 11:50:13;;;;;;;5.20;4.80;;;20.30;99.90;;;;;;5052130;28;20790;-81
2021/08/24 11:52:57;;;;;;;5.43;5.00;;;20.30;99.90;;;;;;5034837;28;20439;-80
2021/08/24 11:55:49;;;;;;;4.80;4.47;;;20.80;99.90;;;;;;5051419;28;20945;-79
2021/08/24 11:58:35;;;;;;;4.60;4.30;;;21.00;99.90;;;;;;5029386;28;20475;-80
2021/08/24 12:01:03;;;;;;;4.80;4.40;;;21.60;99.90;;;;;;5048323;28;20996;-78
2021/08/24 12:03:29;;;;;;;4.80;4.40;;;21.40;95.40;;;;;;5054795;28;20417;-78
2021/08/24 12:06:00;;;;;;;4.93;4.43;;;21.50;96.80;;;;;;5051883;28;20502;-78
2021/08/24 12:08:29;;;;;;;4.20;3.90;;;22.00;97.40;;;;;;5046652;28;20535;-80
2021/08/24 12:11:16;;;;;;;5.40;4.90;;;22.00;96.00;;;;;;5051724;28;20506;-79
2021/08/24 12:13:48;;;;;;;4.67;4.37;;;22.50;97.30;;;;;;5040007;28;20434;-79
2021/08/24 12:16:28;;;;;;;5.50;5.10;;;22.60;97.70;;;;;;5047619;28;20429;-80
2021/08/24 12:19:02;;;;;;;4.83;4.47;;;22.30;89.90;;;;;;5048530;28;20825;-79
2021/08/24 12:21:37;;;;;;;5.20;4.70;;;22.50;91.50;;;;;;5046252;28;20844;-79
2021/08/24 12:24:24;;;;;;;5.20;4.80;;;22.50;94.70;;;;;;5043179;28;20841;-80
2021/08/24 12:26:51;;;;;;;4.90;4.53;;;23.30;92.10;;;;;;5049886;28;20414;-80
2021/08/24 12:29:34;;;;;;;5.03;4.63;;;23.50;92.20;;;;;;5044756;28;20452;-77
2021/08/24 12:32:02;;;;;;;4.40;4.10;;;23.20;90.00;;;;;;5047445;28;20465;-77
2021/08/24 12:34:33;;;;;;;5.57;5.17;;;22.90;88.60;;;;;;5046566;28;20996;-77
2021/08/24 12:37:00;;;;;;;5.20;4.80;;;23.20;86.60;;;;;;5049678;28;20782;-77
2021/08/24 12:39:41;;;;;;;5.53;5.03;;;22.90;88.40;;;;;;5049213;28;20477;-77
2021/08/24 12:45:20;;;;;;;4.87;4.57;;;21.80;88.40;;;;;;4985115;28;20445;-80
2021/08/24 12:48:16;;;;;;;5.60;5.20;;;21.90;91.80;;;;;;5050809;28;20495;-78
2021/08/24 12:50:47;;;;;;;5.83;5.43;;;21.40;89.30;;;;;;5050781;28;20413;-78
2021/08/24 12:53:27;;;;;;;5.50;5.00;;;20.90;92.10;;;;;;5048443;28;20456;-77
2021/08/24 12:55:53;;;;;;;6.57;6.07;;;20.40;93.50;;;;;;5050278;28;20417;-78
2021/08/24 12:58:23;;;;;;;6.80;6.27;;;19.70;93.90;;;;;;5050833;28;20637;-78
2021/08/24 13:01:16;;;;;;;6.20;5.70;;;20.00;97.70;;;;;;5050821;28;20480;-78
2021/08/24 13:04:12;;;;;;;6.47;5.87;;;19.90;98.80;;;;;;5037735;28;20494;-78
2021/08/24 13:06:40;;;;;;;6.23;5.73;;;20.00;99.90;;;;;;5045041;28;20436;-78
2021/08/24 13:09:24;;;;;;;6.30;5.80;;;19.80;99.90;;;;;;5050651;28;20443;-81